SACO/COR METAR and TAF weather

Enter ICAO airport designator
Station Type Date Time Source
SACO METAR 2019/04/25 12:31 UTC NOAA

SACO 251231Z 25006KT 0800 R19/0800 -DZ BR OVC005 13/13 Q1021 NOSIG


Station Type Date Time Source
SACO Decoded METAR 2019/04/25 12:31 UTC NOAA

Cordoba Aerodrome, Argentina (SACO) 31-19S 064-13W 474M
Apr 25, 2019 - 08:31 AM EDT / 2019.04.25 1231 UTC
Wind: from the WSW (250 degrees) at 7 MPH (6 KT):0
Visibility: less than 1 mile:0
Sky conditions: overcast
Weather: light drizzle; mist
Temperature: 55 F (13 C)
Dew Point: 55 F (13 C)
Relative Humidity: 100%
Pressure (altimeter): 30.15 in. Hg (1021 hPa)
ob: SACO 251231Z 25006KT 0800 R19/0800 -DZ BR OVC005 13/13 Q1021 NOSIG
cycle: 12

Station Type Date Time Source
SACO TAF 2019/04/25 12:36 UTC NOAA

TAF TAF SACO 251100Z 2512/2612 23005KT 2000 DZ BR OVC010 TX15/2518Z TN13/2606Z
BECMG 2513/2516 20010KT 5000 DZ BR OVC010
BECMG 2603/2606 23005KT 7000 BR SCT010 BKN030

Example: see airport list